sensor_id;sensor_type;location;lat;lon;timestamp;pressure;altitude;pressure_sealevel;temperature;humidity
62402;BME280;48440;51.224;22.506;2022-08-19T00:00:23;98915.28;;;23.45;67.25
62402;BME280;48440;51.224;22.506;2022-08-19T00:02:48;98911.59;;;23.41;67.69
62402;BME280;48440;51.224;22.506;2022-08-19T00:05:15;98911.19;;;23.39;67.87
62402;BME280;48440;51.224;22.506;2022-08-19T00:07:41;98913.84;;;23.35;67.90
62402;BME280;48440;51.224;22.506;2022-08-19T00:10:11;98916.38;;;23.28;68.00
62402;BME280;48440;51.224;22.506;2022-08-19T00:12:37;98923.53;;;23.29;67.76
62402;BME280;48440;51.224;22.506;2022-08-19T00:15:07;98929.28;;;23.24;67.41
62402;BME280;48440;51.224;22.506;2022-08-19T00:17:37;98933.22;;;23.23;68.02
62402;BME280;48440;51.224;22.506;2022-08-19T00:20:03;98936.53;;;23.16;68.30
62402;BME280;48440;51.224;22.506;2022-08-19T00:22:29;98939.66;;;23.15;68.12
62402;BME280;48440;51.224;22.506;2022-08-19T00:24:55;98941.06;;;23.09;68.37
62402;BME280;48440;51.224;22.506;2022-08-19T00:27:20;98935.19;;;23.10;68.22
62402;BME280;48440;51.224;22.506;2022-08-19T00:29:46;98940.38;;;23.12;68.20
62402;BME280;48440;51.224;22.506;2022-08-19T00:32:11;98937.50;;;23.08;68.11
62402;BME280;48440;51.224;22.506;2022-08-19T00:34:37;98942.56;;;23.06;68.42
62402;BME280;48440;51.224;22.506;2022-08-19T00:37:02;98938.06;;;23.01;68.41
62402;BME280;48440;51.224;22.506;2022-08-19T00:39:28;98937.72;;;23.03;68.34
62402;BME280;48440;51.224;22.506;2022-08-19T00:41:53;98945.09;;;22.99;67.89
62402;BME280;48440;51.224;22.506;2022-08-19T00:44:25;98952.59;;;22.98;68.37
62402;BME280;48440;51.224;22.506;2022-08-19T00:46:53;98948.88;;;22.94;68.37
62402;BME280;48440;51.224;22.506;2022-08-19T00:49:37;98952.81;;;22.93;68.14
62402;BME280;48440;51.224;22.506;2022-08-19T00:52:13;98951.88;;;22.89;68.27
62402;BME280;48440;51.224;22.506;2022-08-19T00:54:40;98964.09;;;22.88;68.22
62402;BME280;48440;51.224;22.506;2022-08-19T00:57:09;98965.59;;;22.86;68.34
62402;BME280;48440;51.224;22.506;2022-08-19T00:59:39;98961.91;;;22.82;68.56
62402;BME280;48440;51.224;22.506;2022-08-19T01:02:05;98949.69;;;22.83;68.83
62402;BME280;48440;51.224;22.506;2022-08-19T01:04:31;98945.44;;;22.85;68.62
62402;BME280;48440;51.224;22.506;2022-08-19T01:06:57;98946.25;;;22.86;68.43
62402;BME280;48440;51.224;22.506;2022-08-19T01:09:23;98953.28;;;22.83;68.62
62402;BME280;48440;51.224;22.506;2022-08-19T01:11:50;98958.22;;;22.78;68.71
62402;BME280;48440;51.224;22.506;2022-08-19T01:14:16;98962.66;;;22.70;68.69
62402;BME280;48440;51.224;22.506;2022-08-19T01:16:43;98964.81;;;22.64;69.04
62402;BME280;48440;51.224;22.506;2022-08-19T01:19:24;98969.88;;;22.62;68.92
62402;BME280;48440;51.224;22.506;2022-08-19T01:24:49;98967.13;;;22.62;69.47
62402;BME280;48440;51.224;22.506;2022-08-19T01:27:16;98962.75;;;22.61;69.60
62402;BME280;48440;51.224;22.506;2022-08-19T01:29:42;98964.34;;;22.62;69.42
62402;BME280;48440;51.224;22.506;2022-08-19T01:32:11;98963.78;;;22.57;69.13
62402;BME280;48440;51.224;22.506;2022-08-19T01:34:37;98960.44;;;22.51;69.52
62402;BME280;48440;51.224;22.506;2022-08-19T01:37:08;98957.06;;;22.46;69.58
62402;BME280;48440;51.224;22.506;2022-08-19T01:39:37;98959.22;;;22.40;69.87
62402;BME280;48440;51.224;22.506;2022-08-19T01:42:03;98960.72;;;22.38;69.90
62402;BME280;48440;51.224;22.506;2022-08-19T01:44:29;98953.56;;;22.37;69.88
62402;BME280;48440;51.224;22.506;2022-08-19T01:46:55;98959.34;;;22.31;70.03
62402;BME280;48440;51.224;22.506;2022-08-19T01:49:23;98959.34;;;22.31;70.19
62402;BME280;48440;51.224;22.506;2022-08-19T01:51:49;98959.22;;;22.28;70.40
62402;BME280;48440;51.224;22.506;2022-08-19T01:54:16;98954.56;;;22.20;70.68
62402;BME280;48440;51.224;22.506;2022-08-19T01:56:43;98959.75;;;22.21;70.70
62402;BME280;48440;51.224;22.506;2022-08-19T01:59:16;98960.09;;;22.20;70.66
62402;BME280;48440;51.224;22.506;2022-08-19T02:01:43;98957.13;;;22.25;70.68
62402;BME280;48440;51.224;22.506;2022-08-19T02:04:08;98958.06;;;22.29;70.40
62402;BME280;48440;51.224;22.506;2022-08-19T02:06:34;98957.47;;;22.23;70.48
62402;BME280;48440;51.224;22.506;2022-08-19T02:09:00;98953.69;;;22.28;70.03
62402;BME280;48440;51.224;22.506;2022-08-19T02:11:34;98960.22;;;22.23;70.12
62402;BME280;48440;51.224;22.506;2022-08-19T02:14:05;98957.78;;;22.22;69.96
62402;BME280;48440;51.224;22.506;2022-08-19T02:16:32;98957.78;;;22.22;69.80
62402;BME280;48440;51.224;22.506;2022-08-19T02:18:57;98957.31;;;22.20;70.10
62402;BME280;48440;51.224;22.506;2022-08-19T02:21:26;98947.75;;;22.17;70.25
62402;BME280;48440;51.224;22.506;2022-08-19T02:23:52;98944.88;;;22.14;70.14
62402;BME280;48440;51.224;22.506;2022-08-19T02:26:19;98945.81;;;22.18;70.04
62402;BME280;48440;51.224;22.506;2022-08-19T02:28:45;98947.09;;;22.20;69.95
62402;BME280;48440;51.224;22.506;2022-08-19T02:31:18;98939.81;;;22.16;70.54
62402;BME280;48440;51.224;22.506;2022-08-19T02:33:45;98950.81;;;22.04;70.75
62402;BME280;48440;51.224;22.506;2022-08-19T02:36:13;98940.44;;;22.00;70.75
62402;BME280;48440;51.224;22.506;2022-08-19T02:38:39;98940.44;;;22.00;71.04
62402;BME280;48440;51.224;22.506;2022-08-19T02:41:07;98943.53;;;21.99;70.77
62402;BME280;48440;51.224;22.506;2022-08-19T02:43:36;98936.53;;;22.02;70.92
62402;BME280;48440;51.224;22.506;2022-08-19T02:46:32;98934.41;;;21.98;70.99
62402;BME280;48440;51.224;22.506;2022-08-19T02:48:59;98929.56;;;21.95;71.07
62402;BME280;48440;51.224;22.506;2022-08-19T02:51:30;98932.16;;;22.00;70.95
62402;BME280;48440;51.224;22.506;2022-08-19T02:53:56;98945.47;;;21.98;71.01
62402;BME280;48440;51.224;22.506;2022-08-19T02:56:22;98946.34;;;21.90;71.37
62402;BME280;48440;51.224;22.506;2022-08-19T02:58:50;98938.72;;;21.87;71.48
62402;BME280;48440;51.224;22.506;2022-08-19T03:01:27;98943.25;;;21.92;71.27
62402;BME280;48440;51.224;22.506;2022-08-19T03:03:53;98953.00;;;21.89;71.25
62402;BME280;48440;51.224;22.506;2022-08-19T03:06:19;98952.19;;;21.89;71.45
62402;BME280;48440;51.224;22.506;2022-08-19T03:08:46;98941.50;;;21.87;71.59
62402;BME280;48440;51.224;22.506;2022-08-19T03:11:19;98945.06;;;21.88;71.54
62402;BME280;48440;51.224;22.506;2022-08-19T03:13:45;98944.59;;;21.86;71.33
62402;BME280;48440;51.224;22.506;2022-08-19T03:16:11;98940.69;;;21.87;71.47
62402;BME280;48440;51.224;22.506;2022-08-19T03:18:37;98950.91;;;21.86;71.41
62402;BME280;48440;51.224;22.506;2022-08-19T03:21:03;98953.34;;;21.88;71.37
62402;BME280;48440;51.224;22.506;2022-08-19T03:23:28;98948.50;;;21.85;71.57
62402;BME280;48440;51.224;22.506;2022-08-19T03:25:54;98948.97;;;21.87;71.50
62402;BME280;48440;51.224;22.506;2022-08-19T03:28:20;98943.09;;;21.88;71.37
62402;BME280;48440;51.224;22.506;2022-08-19T03:31:01;98950.38;;;21.93;71.32
62402;BME280;48440;51.224;22.506;2022-08-19T03:33:28;98950.06;;;21.94;71.25
62402;BME280;48440;51.224;22.506;2022-08-19T03:38:26;98951.81;;;21.99;71.10
62402;BME280;48440;51.224;22.506;2022-08-19T03:40:52;98954.25;;;22.00;70.98
62402;BME280;48440;51.224;22.506;2022-08-19T03:43:17;98957.03;;;22.00;70.92
62402;BME280;48440;51.224;22.506;2022-08-19T03:45:44;98959.91;;;22.04;71.23
62402;BME280;48440;51.224;22.506;2022-08-19T03:48:09;98954.88;;;22.06;70.89
62402;BME280;48440;51.224;22.506;2022-08-19T03:50:39;98956.34;;;22.04;71.28
62402;BME280;48440;51.224;22.506;2022-08-19T03:53:04;98958.81;;;21.96;71.42
62402;BME280;48440;51.224;22.506;2022-08-19T03:55:30;98959.00;;;21.91;71.46
62402;BME280;48440;51.224;22.506;2022-08-19T03:57:55;98952.34;;;21.92;71.42
62402;BME280;48440;51.224;22.506;2022-08-19T04:00:21;98958.66;;;21.93;71.58
62402;BME280;48440;51.224;22.506;2022-08-19T04:02:47;98949.56;;;21.92;71.79
62402;BME280;48440;51.224;22.506;2022-08-19T04:05:12;98958.34;;;21.94;71.73
62402;BME280;48440;51.224;22.506;2022-08-19T04:07:39;98954.97;;;21.89;72.06
62402;BME280;48440;51.224;22.506;2022-08-19T04:10:05;98959.16;;;21.95;72.02
62402;BME280;48440;51.224;22.506;2022-08-19T04:12:31;98962.53;;;22.00;71.76
62402;BME280;48440;51.224;22.506;2022-08-19T04:14:57;98960.41;;;22.06;71.50
62402;BME280;48440;51.224;22.506;2022-08-19T04:17:23;98951.53;;;22.13;71.41
62402;BME280;48440;51.224;22.506;2022-08-19T04:19:49;98955.72;;;22.19;71.09
62402;BME280;48440;51.224;22.506;2022-08-19T04:22:14;98955.03;;;22.22;70.76
62402;BME280;48440;51.224;22.506;2022-08-19T04:24:40;98952.88;;;22.27;70.67
62402;BME280;48440;51.224;22.506;2022-08-19T04:27:05;98958.53;;;22.31;70.43
62402;BME280;48440;51.224;22.506;2022-08-19T04:29:32;98958.19;;;22.32;70.51
62402;BME280;48440;51.224;22.506;2022-08-19T04:31:58;98965.91;;;22.39;70.10
62402;BME280;48440;51.224;22.506;2022-08-19T04:34:26;98963.63;;;22.41;70.04
62402;BME280;48440;51.224;22.506;2022-08-19T04:36:53;98968.13;;;22.46;69.77
62402;BME280;48440;51.224;22.506;2022-08-19T04:39:23;98969.75;;;22.47;69.96
62402;BME280;48440;51.224;22.506;2022-08-19T04:42:08;98968.72;;;22.51;69.78
62402;BME280;48440;51.224;22.506;2022-08-19T04:44:52;98962.97;;;22.56;69.92
62402;BME280;48440;51.224;22.506;2022-08-19T04:47:18;98967.38;;;22.57;70.16
62402;BME280;48440;51.224;22.506;2022-08-19T04:49:43;98968.06;;;22.66;69.55
62402;BME280;48440;51.224;22.506;2022-08-19T04:52:09;98966.50;;;22.78;68.78
62402;BME280;48440;51.224;22.506;2022-08-19T04:54:34;98964.91;;;22.89;67.74
62402;BME280;48440;51.224;22.506;2022-08-19T04:56:59;98966.19;;;23.04;67.53
62402;BME280;48440;51.224;22.506;2022-08-19T04:59:25;98956.25;;;23.15;67.36
62402;BME280;48440;51.224;22.506;2022-08-19T05:01:50;98953.72;;;23.22;66.74
62402;BME280;48440;51.224;22.506;2022-08-19T05:04:18;98952.94;;;23.33;66.30
62402;BME280;48440;51.224;22.506;2022-08-19T05:06:45;98954.06;;;23.45;66.33
62402;BME280;48440;51.224;22.506;2022-08-19T05:09:12;98961.25;;;23.58;66.07
62402;BME280;48440;51.224;22.506;2022-08-19T05:11:38;98956.28;;;23.63;65.62
62402;BME280;48440;51.224;22.506;2022-08-19T05:14:06;98963.16;;;23.69;65.30
62402;BME280;48440;51.224;22.506;2022-08-19T05:16:31;98961.06;;;23.79;64.73
62402;BME280;48440;51.224;22.506;2022-08-19T05:18:57;98955.84;;;23.89;64.72
62402;BME280;48440;51.224;22.506;2022-08-19T05:21:42;98957.66;;;23.97;64.41
62402;BME280;48440;51.224;22.506;2022-08-19T05:24:27;98959.34;;;24.14;63.99
62402;BME280;48440;51.224;22.506;2022-08-19T05:26:55;98954.22;;;24.28;63.93
62402;BME280;48440;51.224;22.506;2022-08-19T05:29:23;98958.94;;;24.56;62.95
62402;BME280;48440;51.224;22.506;2022-08-19T05:31:50;98961.19;;;24.82;62.11
62402;BME280;48440;51.224;22.506;2022-08-19T05:34:18;98955.38;;;24.87;61.15
62402;BME280;48440;51.224;22.506;2022-08-19T05:36:47;98955.56;;;24.94;61.31
62402;BME280;48440;51.224;22.506;2022-08-19T05:39:16;98949.50;;;25.04;61.27
62402;BME280;48440;51.224;22.506;2022-08-19T05:42:03;98951.19;;;25.24;60.75
62402;BME280;48440;51.224;22.506;2022-08-19T05:44:33;98952.41;;;25.43;60.30
62402;BME280;48440;51.224;22.506;2022-08-19T05:47:02;98959.81;;;25.54;59.62
62402;BME280;48440;51.224;22.506;2022-08-19T05:49:28;98974.78;;;25.65;59.74
62402;BME280;48440;51.224;22.506;2022-08-19T05:51:54;98982.78;;;25.86;59.25
62402;BME280;48440;51.224;22.506;2022-08-19T05:54:21;98994.16;;;25.97;59.45
62402;BME280;48440;51.224;22.506;2022-08-19T05:56:49;98990.13;;;26.14;58.76
62402;BME280;48440;51.224;22.506;2022-08-19T05:59:16;98996.53;;;26.33;58.33
62402;BME280;48440;51.224;22.506;2022-08-19T06:01:44;99000.44;;;26.52;58.47
62402;BME280;48440;51.224;22.506;2022-08-19T06:04:12;98990.28;;;26.59;58.03
62402;BME280;48440;51.224;22.506;2022-08-19T06:06:41;98985.34;;;26.72;57.08
62402;BME280;48440;51.224;22.506;2022-08-19T06:09:07;98984.00;;;26.85;57.10
62402;BME280;48440;51.224;22.506;2022-08-19T06:11:47;98980.06;;;27.09;56.90
62402;BME280;48440;51.224;22.506;2022-08-19T06:14:18;98989.72;;;27.15;56.42
62402;BME280;48440;51.224;22.506;2022-08-19T06:16:44;98980.94;;;27.40;55.85
62402;BME280;48440;51.224;22.506;2022-08-19T06:19:16;98995.16;;;27.57;55.83
62402;BME280;48440;51.224;22.506;2022-08-19T06:21:44;98998.72;;;27.54;54.85
62402;BME280;48440;51.224;22.506;2022-08-19T06:24:12;98999.88;;;27.53;54.54
62402;BME280;48440;51.224;22.506;2022-08-19T06:26:47;99004.56;;;27.72;55.16
62402;BME280;48440;51.224;22.506;2022-08-19T06:29:14;99008.13;;;27.99;53.79
62402;BME280;48440;51.224;22.506;2022-08-19T06:31:44;99008.13;;;27.99;53.84
62402;BME280;48440;51.224;22.506;2022-08-19T06:34:11;99004.09;;;28.23;53.18
62402;BME280;48440;51.224;22.506;2022-08-19T06:36:39;99002.75;;;28.43;52.32
62402;BME280;48440;51.224;22.506;2022-08-19T06:39:21;99004.16;;;28.63;52.83
62402;BME280;48440;51.224;22.506;2022-08-19T06:41:49;99001.41;;;28.67;52.46
62402;BME280;48440;51.224;22.506;2022-08-19T06:44:15;98996.53;;;28.94;51.87
62402;BME280;48440;51.224;22.506;2022-08-19T06:46:41;98998.41;;;29.23;51.18
62402;BME280;48440;51.224;22.506;2022-08-19T06:49:10;98998.19;;;29.46;50.19
62402;BME280;48440;51.224;22.506;2022-08-19T06:51:42;98987.78;;;29.43;50.02
62402;BME280;48440;51.224;22.506;2022-08-19T06:54:09;98985.84;;;29.47;49.66
62402;BME280;48440;51.224;22.506;2022-08-19T06:56:35;98980.69;;;29.53;49.92
62402;BME280;48440;51.224;22.506;2022-08-19T06:59:04;98976.75;;;29.61;50.72
62402;BME280;48440;51.224;22.506;2022-08-19T07:01:34;98977.25;;;29.77;50.25
62402;BME280;48440;51.224;22.506;2022-08-19T07:04:00;98982.97;;;29.98;49.12
62402;BME280;48440;51.224;22.506;2022-08-19T07:06:26;98983.53;;;30.29;49.22
62402;BME280;48440;51.224;22.506;2022-08-19T07:08:52;98982.38;;;30.48;47.91
62402;BME280;48440;51.224;22.506;2022-08-19T07:11:18;98985.16;;;30.41;47.60
62402;BME280;48440;51.224;22.506;2022-08-19T07:13:45;98980.34;;;30.30;47.66
62402;BME280;48440;51.224;22.506;2022-08-19T07:16:16;98984.38;;;30.40;48.65
62402;BME280;48440;51.224;22.506;2022-08-19T07:18:43;98986.38;;;30.40;47.66
62402;BME280;48440;51.224;22.506;2022-08-19T07:21:18;98993.56;;;30.44;47.95
62402;BME280;48440;51.224;22.506;2022-08-19T07:23:45;98996.88;;;30.75;47.63
62402;BME280;48440;51.224;22.506;2022-08-19T07:26:27;99004.91;;;30.97;47.22
62402;BME280;48440;51.224;22.506;2022-08-19T07:28:55;99013.00;;;31.13;46.14
62402;BME280;48440;51.224;22.506;2022-08-19T07:31:24;99006.94;;;31.08;46.41
62402;BME280;48440;51.224;22.506;2022-08-19T07:33:52;98998.56;;;31.32;45.76
62402;BME280;48440;51.224;22.506;2022-08-19T07:36:26;98992.94;;;31.64;45.25
62402;BME280;48440;51.224;22.506;2022-08-19T07:38:59;99002.94;;;31.87;45.24
62402;BME280;48440;51.224;22.506;2022-08-19T07:41:27;99003.34;;;31.92;44.23
62402;BME280;48440;51.224;22.506;2022-08-19T07:43:59;99003.34;;;31.85;44.37
62402;BME280;48440;51.224;22.506;2022-08-19T07:46:34;98999.34;;;31.90;44.06
62402;BME280;48440;51.224;22.506;2022-08-19T07:49:01;99002.47;;;32.17;43.85
62402;BME280;48440;51.224;22.506;2022-08-19T07:51:27;99002.41;;;32.34;43.84
62402;BME280;48440;51.224;22.506;2022-08-19T07:53:53;98999.91;;;32.51;42.82
62402;BME280;48440;51.224;22.506;2022-08-19T07:56:20;99002.38;;;32.38;42.18
62402;BME280;48440;51.224;22.506;2022-08-19T07:58:47;99003.63;;;32.26;42.93
62402;BME280;48440;51.224;22.506;2022-08-19T08:01:16;98996.47;;;32.04;43.56
62402;BME280;48440;51.224;22.506;2022-08-19T08:03:43;98998.88;;;32.05;43.44
62402;BME280;48440;51.224;22.506;2022-08-19T08:06:27;99000.09;;;32.01;43.56
62402;BME280;48440;51.224;22.506;2022-08-19T08:09:13;99010.50;;;31.97;41.86
62402;BME280;48440;51.224;22.506;2022-08-19T08:11:58;99010.97;;;31.60;42.39
62402;BME280;48440;51.224;22.506;2022-08-19T08:14:30;99007.75;;;31.76;42.31
62402;BME280;48440;51.224;22.506;2022-08-19T08:16:57;99016.16;;;31.93;43.02
62402;BME280;48440;51.224;22.506;2022-08-19T08:19:24;99013.38;;;31.79;42.18
62402;BME280;48440;51.224;22.506;2022-08-19T08:21:50;99020.59;;;31.73;41.93
62402;BME280;48440;51.224;22.506;2022-08-19T08:24:17;99013.38;;;31.58;42.19
62402;BME280;48440;51.224;22.506;2022-08-19T08:26:43;99023.00;;;31.60;42.14
62402;BME280;48440;51.224;22.506;2022-08-19T08:29:13;99022.19;;;31.70;41.83
62402;BME280;48440;51.224;22.506;2022-08-19T08:31:41;99022.13;;;31.99;41.97
62402;BME280;48440;51.224;22.506;2022-08-19T08:34:08;99030.13;;;32.08;41.53
62402;BME280;48440;51.224;22.506;2022-08-19T08:36:40;99020.50;;;32.09;40.39
62402;BME280;48440;51.224;22.506;2022-08-19T08:39:08;99013.66;;;32.24;40.59
62402;BME280;48440;51.224;22.506;2022-08-19T08:44:23;99019.81;;;31.69;39.08
62402;BME280;48440;51.224;22.506;2022-08-19T08:46:58;99010.97;;;31.60;38.72
62402;BME280;48440;51.224;22.506;2022-08-19T08:49:45;99013.78;;;31.70;38.51
62402;BME280;48440;51.224;22.506;2022-08-19T08:52:22;99010.56;;;31.86;38.82
62402;BME280;48440;51.224;22.506;2022-08-19T08:54:52;99013.75;;;31.92;38.21
62402;BME280;48440;51.224;22.506;2022-08-19T08:57:32;99012.06;;;32.19;38.13
62402;BME280;48440;51.224;22.506;2022-08-19T09:00:04;99014.44;;;32.28;36.87
62402;BME280;48440;51.224;22.506;2022-08-19T09:02:31;99014.84;;;32.30;36.78
62402;BME280;48440;51.224;22.506;2022-08-19T09:04:57;99011.63;;;32.35;37.35
62402;BME280;48440;51.224;22.506;2022-08-19T09:07:35;99012.41;;;32.39;36.54
62402;BME280;48440;51.224;22.506;2022-08-19T09:10:18;99018.00;;;32.46;35.97
62402;BME280;48440;51.224;22.506;2022-08-19T09:15:23;99014.03;;;32.36;35.53
62402;BME280;48440;51.224;22.506;2022-08-19T09:17:52;99011.13;;;32.58;35.76
62402;BME280;48440;51.224;22.506;2022-08-19T09:20:20;99011.47;;;32.74;35.74
62402;BME280;48440;51.224;22.506;2022-08-19T09:22:47;99013.09;;;32.64;34.78
62402;BME280;48440;51.224;22.506;2022-08-19T09:25:17;99004.66;;;32.68;34.77
62402;BME280;48440;51.224;22.506;2022-08-19T09:27:43;99004.59;;;32.82;35.35
62402;BME280;48440;51.224;22.506;2022-08-19T09:30:19;98997.81;;;32.69;34.62
62402;BME280;48440;51.224;22.506;2022-08-19T09:32:47;99000.25;;;32.63;35.17
62402;BME280;48440;51.224;22.506;2022-08-19T09:35:14;99007.63;;;32.36;34.97
62402;BME280;48440;51.224;22.506;2022-08-19T09:37:40;98987.06;;;32.50;35.72
62402;BME280;48440;51.224;22.506;2022-08-19T09:40:07;98996.63;;;32.66;35.98
62402;BME280;48440;51.224;22.506;2022-08-19T09:42:33;99003.06;;;32.74;35.81
62402;BME280;48440;51.224;22.506;2022-08-19T09:44:59;99010.56;;;32.91;35.13
62402;BME280;48440;51.224;22.506;2022-08-19T09:47:25;98994.44;;;32.99;34.85
62402;BME280;48440;51.224;22.506;2022-08-19T09:49:51;98996.50;;;32.91;34.19
62402;BME280;48440;51.224;22.506;2022-08-19T09:52:17;99001.69;;;32.96;33.81
62402;BME280;48440;51.224;22.506;2022-08-19T09:54:43;99006.59;;;32.82;33.47
62402;BME280;48440;51.224;22.506;2022-08-19T09:57:09;99001.44;;;32.69;33.57
62402;BME280;48440;51.224;22.506;2022-08-19T09:59:35;99005.56;;;32.47;33.56
62402;BME280;48440;51.224;22.506;2022-08-19T10:02:00;98992.34;;;32.44;34.00
62402;BME280;48440;51.224;22.506;2022-08-19T10:04:26;98998.78;;;32.37;35.21
62402;BME280;48440;51.224;22.506;2022-08-19T10:07:12;98990.41;;;32.27;34.04
62402;BME280;48440;51.224;22.506;2022-08-19T10:09:37;98998.78;;;32.41;34.61
62402;BME280;48440;51.224;22.506;2022-08-19T10:12:04;98991.56;;;32.40;34.98
62402;BME280;48440;51.224;22.506;2022-08-19T10:14:30;98995.56;;;32.39;34.39
62402;BME280;48440;51.224;22.506;2022-08-19T10:16:56;99002.81;;;32.33;34.32
62402;BME280;48440;51.224;22.506;2022-08-19T10:19:22;99003.25;;;32.14;34.35
62402;BME280;48440;51.224;22.506;2022-08-19T10:21:48;99006.44;;;32.23;34.37
62402;BME280;48440;51.224;22.506;2022-08-19T10:24:14;99006.03;;;32.31;34.52
62402;BME280;48440;51.224;22.506;2022-08-19T10:26:41;99010.81;;;32.34;33.64
62402;BME280;48440;51.224;22.506;2022-08-19T10:29:11;99011.63;;;32.31;33.65
62402;BME280;48440;51.224;22.506;2022-08-19T10:31:42;99010.03;;;32.27;34.28
62402;BME280;48440;51.224;22.506;2022-08-19T10:34:11;99002.41;;;32.31;34.53
62402;BME280;48440;51.224;22.506;2022-08-19T10:36:41;99008.41;;;32.40;34.50
62402;BME280;48440;51.224;22.506;2022-08-19T10:39:08;99007.59;;;32.40;34.51
62402;BME280;48440;51.224;22.506;2022-08-19T10:41:37;99002.31;;;32.52;34.94
62402;BME280;48440;51.224;22.506;2022-08-19T10:44:06;99002.28;;;32.59;35.17
62402;BME280;48440;51.224;22.506;2022-08-19T10:46:36;99001.50;;;32.55;34.06
62402;BME280;48440;51.224;22.506;2022-08-19T10:49:04;99006.72;;;32.53;34.08
62402;BME280;48440;51.224;22.506;2022-08-19T10:51:37;99000.75;;;32.44;33.58
62402;BME280;48440;51.224;22.506;2022-08-19T10:54:24;99004.78;;;32.40;33.40
62402;BME280;48440;51.224;22.506;2022-08-19T10:57:14;99008.84;;;32.31;33.53
62402;BME280;48440;51.224;22.506;2022-08-19T10:59:56;99003.69;;;32.05;33.08
62402;BME280;48440;51.224;22.506;2022-08-19T11:02:25;99002.47;;;32.02;33.80
62402;BME280;48440;51.224;22.506;2022-08-19T11:04:53;98999.34;;;31.90;32.74
62402;BME280;48440;51.224;22.506;2022-08-19T11:07:22;98996.13;;;31.91;34.37
62402;BME280;48440;51.224;22.506;2022-08-19T11:09:50;98986.91;;;31.87;34.41
62402;BME280;48440;51.224;22.506;2022-08-19T11:12:16;98987.31;;;31.93;34.60
62402;BME280;48440;51.224;22.506;2022-08-19T11:14:42;98985.25;;;31.97;34.82
62402;BME280;48440;51.224;22.506;2022-08-19T11:17:08;98994.91;;;31.92;34.01
62402;BME280;48440;51.224;22.506;2022-08-19T11:19:34;98979.72;;;31.76;33.57
62402;BME280;48440;51.224;22.506;2022-08-19T11:22:00;98976.13;;;31.64;34.42
62402;BME280;48440;51.224;22.506;2022-08-19T11:24:30;98957.69;;;31.63;35.05
62402;BME280;48440;51.224;22.506;2022-08-19T11:27:07;98966.09;;;31.60;34.29
62402;BME280;48440;51.224;22.506;2022-08-19T11:29:35;98968.13;;;31.56;34.35
62402;BME280;48440;51.224;22.506;2022-08-19T11:32:06;98963.72;;;31.51;35.07
62402;BME280;48440;51.224;22.506;2022-08-19T11:34:32;98956.91;;;31.49;35.59
62402;BME280;48440;51.224;22.506;2022-08-19T11:37:00;98954.53;;;31.44;35.83
62402;BME280;48440;51.224;22.506;2022-08-19T11:39:33;98957.34;;;31.33;35.97
62402;BME280;48440;51.224;22.506;2022-08-19T11:42:00;98950.53;;;31.30;36.97
62402;BME280;48440;51.224;22.506;2022-08-19T11:44:31;98950.16;;;31.18;37.44
62402;BME280;48440;51.224;22.506;2022-08-19T11:46:57;98957.72;;;31.07;36.62
62402;BME280;48440;51.224;22.506;2022-08-19T11:49:22;98958.91;;;31.09;37.40
62402;BME280;48440;51.224;22.506;2022-08-19T11:51:48;98946.91;;;31.05;39.24
62402;BME280;48440;51.224;22.506;2022-08-19T11:54:16;98955.31;;;31.01;38.76
62402;BME280;48440;51.224;22.506;2022-08-19T11:56:45;98955.69;;;30.96;37.55
62402;BME280;48440;51.224;22.506;2022-08-19T11:59:13;98953.28;;;30.95;38.35
62402;BME280;48440;51.224;22.506;2022-08-19T12:01:38;98952.50;;;30.94;37.54
62402;BME280;48440;51.224;22.506;2022-08-19T12:04:06;98943.28;;;30.94;37.48
62402;BME280;48440;51.224;22.506;2022-08-19T12:06:32;98944.91;;;30.91;36.54
62402;BME280;48440;51.224;22.506;2022-08-19T12:09:05;98944.91;;;30.88;38.01
62402;BME280;48440;51.224;22.506;2022-08-19T12:11:32;98937.28;;;30.85;38.59
62402;BME280;48440;51.224;22.506;2022-08-19T12:13:58;98938.09;;;30.82;38.21
62402;BME280;48440;51.224;22.506;2022-08-19T12:16:26;98950.09;;;30.82;37.61
62402;BME280;48440;51.224;22.506;2022-08-19T12:18:53;98938.47;;;30.77;38.68
62402;BME280;48440;51.224;22.506;2022-08-19T12:21:23;98938.47;;;30.73;37.00
62402;BME280;48440;51.224;22.506;2022-08-19T12:23:50;98948.09;;;30.65;37.36
62402;BME280;48440;51.224;22.506;2022-08-19T12:26:17;98945.25;;;30.58;36.35
62402;BME280;48440;51.224;22.506;2022-08-19T12:28:43;98949.25;;;30.57;37.00
62402;BME280;48440;51.224;22.506;2022-08-19T12:31:09;98946.88;;;30.59;37.46
62402;BME280;48440;51.224;22.506;2022-08-19T12:33:37;98952.00;;;30.50;38.62
62402;BME280;48440;51.224;22.506;2022-08-19T12:36:05;98945.97;;;30.41;37.16
62402;BME280;48440;51.224;22.506;2022-08-19T12:38:32;98937.19;;;30.42;37.14
62402;BME280;48440;51.224;22.506;2022-08-19T12:41:00;98935.19;;;30.39;37.67
62402;BME280;48440;51.224;22.506;2022-08-19T12:43:26;98933.19;;;30.40;37.44
62402;BME280;48440;51.224;22.506;2022-08-19T12:45:52;98927.97;;;30.42;37.15
62402;BME280;48440;51.224;22.506;2022-08-19T12:48:18;98932.00;;;30.44;38.70
62402;BME280;48440;51.224;22.506;2022-08-19T12:50:45;98928.78;;;30.42;39.27
62402;BME280;48440;51.224;22.506;2022-08-19T12:53:11;98918.00;;;30.37;39.42
62402;BME280;48440;51.224;22.506;2022-08-19T12:55:37;98910.78;;;30.32;39.73
62402;BME280;48440;51.224;22.506;2022-08-19T12:58:02;98912.38;;;30.30;39.11
62402;BME280;48440;51.224;22.506;2022-08-19T13:00:29;98903.16;;;30.26;39.25
62402;BME280;48440;51.224;22.506;2022-08-19T13:02:56;98915.16;;;30.26;37.82
62402;BME280;48440;51.224;22.506;2022-08-19T13:05:26;98913.53;;;30.22;38.35
62402;BME280;48440;51.224;22.506;2022-08-19T13:07:53;98908.75;;;30.22;37.65